createdAt,value
2018-12-07T00:00:26.795Z,106.63
2018-12-07T00:02:55.155Z,96.50
2018-12-07T00:05:23.531Z,101.67
2018-12-07T00:07:51.860Z,81.80
2018-12-07T00:10:20.239Z,84.97
2018-12-07T00:12:48.580Z,91.57
2018-12-07T00:15:16.959Z,91.00
2018-12-07T00:17:45.307Z,77.40
2018-12-07T00:20:13.804Z,79.50
2018-12-07T00:22:42.142Z,94.67
2018-12-07T00:25:10.639Z,85.37
2018-12-07T00:27:38.998Z,87.10
2018-12-07T00:30:07.661Z,90.50
2018-12-07T00:32:36.028Z,86.67
2018-12-07T00:35:05.429Z,73.27
2018-12-07T00:37:34.280Z,72.57
2018-12-07T00:40:02.666Z,58.60
2018-12-07T00:42:31.055Z,58.87
2018-12-07T00:44:59.428Z,53.37
2018-12-07T00:47:27.818Z,61.33
2018-12-07T00:49:56.179Z,62.93
2018-12-07T00:52:24.599Z,61.20
2018-12-07T00:54:53.006Z,60.07
2018-12-07T00:57:21.428Z,62.30
2018-12-07T00:59:49.801Z,61.90
2018-12-07T01:02:18.203Z,57.30
2018-12-07T01:04:46.567Z,49.70
2018-12-07T01:07:14.930Z,46.30
2018-12-07T01:09:43.280Z,56.10
2018-12-07T01:12:11.663Z,28.93
2018-12-07T01:14:40.031Z,25.37
2018-12-07T01:17:08.430Z,28.70
2018-12-07T01:19:36.775Z,29.50
2018-12-07T01:22:05.147Z,30.33
2018-12-07T01:24:33.514Z,31.33
2018-12-07T01:27:01.911Z,35.00
2018-12-07T01:29:30.269Z,35.90
2018-12-07T01:31:58.651Z,39.77
2018-12-07T01:34:27.011Z,47.67
2018-12-07T01:36:55.491Z,46.70
2018-12-07T01:39:23.851Z,49.77
2018-12-07T01:41:52.208Z,40.57
2018-12-07T01:44:20.583Z,31.67
2018-12-07T01:46:48.983Z,26.47
2018-12-07T01:49:18.456Z,21.87
2018-12-07T01:51:47.035Z,21.83
2018-12-07T01:54:15.407Z,20.67
2018-12-07T01:56:43.759Z,22.90
2018-12-07T01:59:12.139Z,23.10
2018-12-07T02:01:40.499Z,21.60
2018-12-07T02:04:08.862Z,19.63
2018-12-07T02:06:37.232Z,17.00
2018-12-07T02:09:07.679Z,22.33
2018-12-07T02:11:36.469Z,19.60
2018-12-07T02:14:05.070Z,21.27
2018-12-07T02:16:33.439Z,15.70
2018-12-07T02:19:01.815Z,17.30
2018-12-07T02:21:30.264Z,16.67
2018-12-07T02:23:58.640Z,19.73
2018-12-07T02:26:27.039Z,20.13
2018-12-07T02:28:55.376Z,18.77
2018-12-07T02:31:23.792Z,22.77
2018-12-07T02:33:52.171Z,24.13
2018-12-07T02:36:20.550Z,20.90
2018-12-07T02:38:48.919Z,21.87
2018-12-07T02:41:17.315Z,20.67
2018-12-07T02:43:45.766Z,23.90
2018-12-07T02:46:14.148Z,24.83
2018-12-07T02:48:42.763Z,24.20
2018-12-07T02:51:11.169Z,19.87
2018-12-07T02:53:39.546Z,19.43
2018-12-07T02:56:07.915Z,20.37
2018-12-07T02:58:36.308Z,26.30
2018-12-07T03:01:04.698Z,24.40
2018-12-07T03:03:33.090Z,21.83
2018-12-07T03:06:01.455Z,17.33
2018-12-07T03:08:29.810Z,15.73
2018-12-07T03:10:58.191Z,18.57
2018-12-07T03:13:26.569Z,20.53
2018-12-07T03:15:54.946Z,18.23
2018-12-07T03:18:30.331Z,17.60
2018-12-07T03:20:58.977Z,17.67
2018-12-07T03:23:28.006Z,22.43
2018-12-07T03:25:56.409Z,19.53
2018-12-07T03:28:24.755Z,17.13
2018-12-07T03:30:53.232Z,19.20
2018-12-07T03:33:21.751Z,17.87
2018-12-07T03:35:50.233Z,20.27
2018-12-07T03:38:18.587Z,20.90
2018-12-07T03:40:46.960Z,23.63
2018-12-07T03:43:15.458Z,25.10
2018-12-07T03:45:43.811Z,24.60
2018-12-07T03:48:12.206Z,24.30
2018-12-07T03:50:40.561Z,24.13
2018-12-07T03:53:08.926Z,29.03
2018-12-07T03:55:37.304Z,29.30
2018-12-07T03:58:05.718Z,33.13
2018-12-07T04:00:34.090Z,33.00
2018-12-07T04:03:02.491Z,33.27
2018-12-07T04:05:30.973Z,37.30
2018-12-07T04:07:59.463Z,32.50
2018-12-07T04:10:27.842Z,35.40
2018-12-07T04:12:56.200Z,34.10
2018-12-07T04:15:24.568Z,38.13
2018-12-07T04:17:52.927Z,30.43
2018-12-07T04:20:21.277Z,37.00
2018-12-07T04:22:49.635Z,35.13
2018-12-07T04:25:18.027Z,38.43
2018-12-07T04:27:46.412Z,32.27
2018-12-07T04:30:27.403Z,32.73
2018-12-07T04:32:55.769Z,31.10
2018-12-07T04:35:24.161Z,34.47
2018-12-07T04:37:52.550Z,33.20
2018-12-07T04:40:20.921Z,31.83
2018-12-07T04:42:49.503Z,36.63
2018-12-07T04:45:18.177Z,34.20
2018-12-07T04:47:46.671Z,39.23
2018-12-07T04:50:15.162Z,36.20
2018-12-07T04:52:43.560Z,38.47
2018-12-07T04:55:11.916Z,39.27
2018-12-07T04:57:40.339Z,38.20
2018-12-07T05:00:08.982Z,39.23
2018-12-07T05:02:37.392Z,42.17
2018-12-07T05:05:05.882Z,43.67
2018-12-07T05:07:34.258Z,44.53
2018-12-07T05:10:02.897Z,45.87
2018-12-07T05:12:31.280Z,41.17
2018-12-07T05:14:59.982Z,45.77
2018-12-07T05:17:28.360Z,50.63
2018-12-07T05:19:56.819Z,47.60
2018-12-07T05:22:25.315Z,48.03
2018-12-07T05:24:53.702Z,49.90
2018-12-07T05:27:22.120Z,48.50
2018-12-07T05:29:50.682Z,45.97
2018-12-07T05:32:19.075Z,54.43
2018-12-07T05:34:47.440Z,51.23
2018-12-07T05:37:15.816Z,51.07
2018-12-07T05:39:44.312Z,46.77
2018-12-07T05:42:12.712Z,50.17
2018-12-07T05:44:41.104Z,56.87
2018-12-07T05:47:09.488Z,52.33
2018-12-07T05:49:37.883Z,57.37
2018-12-07T05:52:06.259Z,53.33
2018-12-07T05:54:34.651Z,58.37
2018-12-07T05:57:03.070Z,56.70
2018-12-07T05:59:31.455Z,56.47
2018-12-07T06:01:59.830Z,56.03
2018-12-07T06:04:28.179Z,55.83
2018-12-07T06:06:56.596Z,43.40
2018-12-07T06:09:24.940Z,42.17
2018-12-07T06:11:55.028Z,46.97
2018-12-07T06:14:23.688Z,42.13
2018-12-07T06:16:52.055Z,36.63
2018-12-07T06:19:21.097Z,38.70
2018-12-07T06:21:49.627Z,35.50
2018-12-07T06:24:18.114Z,35.07
2018-12-07T06:26:46.615Z,32.07
2018-12-07T06:29:15.144Z,28.60
2018-12-07T06:31:44.016Z,38.40
2018-12-07T06:34:14.303Z,36.27
2018-12-07T06:36:42.840Z,31.70
2018-12-07T06:39:12.045Z,33.03
2018-12-07T06:41:40.440Z,33.70
2018-12-07T06:44:08.916Z,32.83
2018-12-07T06:46:37.251Z,34.83
2018-12-07T06:49:11.253Z,42.20
2018-12-07T06:51:40.887Z,31.67
2018-12-07T06:54:09.288Z,36.80
2018-12-07T06:56:37.664Z,36.67
2018-12-07T06:59:06.205Z,36.80
2018-12-07T07:01:34.686Z,29.17
2018-12-07T07:04:03.168Z,34.60
2018-12-07T07:06:31.671Z,28.80
2018-12-07T07:09:00.119Z,27.93
2018-12-07T07:11:28.512Z,27.27
2018-12-07T07:13:56.951Z,34.40
2018-12-07T07:16:25.332Z,31.77
2018-12-07T07:18:53.731Z,24.50
2018-12-07T07:21:22.322Z,29.73
2018-12-07T07:23:50.823Z,32.43
2018-12-07T07:26:19.573Z,26.43
2018-12-07T07:28:47.959Z,25.73
2018-12-07T07:31:16.500Z,27.40
2018-12-07T07:33:45.302Z,30.33
2018-12-07T07:36:15.100Z,35.67
2018-12-07T07:38:44.177Z,27.93
2018-12-07T07:41:12.602Z,33.10
2018-12-07T07:43:40.977Z,31.93
2018-12-07T07:46:09.523Z,32.63
2018-12-07T07:48:37.908Z,26.60
2018-12-07T07:51:06.425Z,37.13
2018-12-07T07:53:34.832Z,27.10
2018-12-07T07:56:03.220Z,36.40
2018-12-07T07:58:31.665Z,25.03
2018-12-07T08:01:00.039Z,24.83
2018-12-07T08:03:28.417Z,31.33
2018-12-07T08:05:56.828Z,24.60
2018-12-07T08:08:25.239Z,24.17
2018-12-07T08:10:53.641Z,22.20
2018-12-07T08:13:22.164Z,21.73
2018-12-07T08:15:50.551Z,21.63
2018-12-07T08:18:18.929Z,18.27
2018-12-07T08:20:47.419Z,22.87
2018-12-07T08:23:15.796Z,18.93
2018-12-07T08:25:44.212Z,21.43
2018-12-07T08:28:12.688Z,23.67
2018-12-07T08:30:41.049Z,19.93
2018-12-07T08:33:09.448Z,19.13
2018-12-07T08:35:37.794Z,19.67
2018-12-07T08:38:06.276Z,16.67
2018-12-07T08:40:34.643Z,20.33
2018-12-07T08:43:03.050Z,25.03
2018-12-07T08:45:31.798Z,34.03
2018-12-07T08:48:00.273Z,21.97
2018-12-07T08:50:28.861Z,19.80
2018-12-07T08:52:57.237Z,21.50
2018-12-07T08:55:25.668Z,20.17
2018-12-07T09:00:27.881Z,18.13
2018-12-07T09:02:56.326Z,23.77
2018-12-07T09:05:24.687Z,21.23
2018-12-07T09:07:53.206Z,18.30
2018-12-07T09:10:21.687Z,22.63
2018-12-07T09:12:50.078Z,19.80
2018-12-07T09:15:18.475Z,20.70
2018-12-07T09:17:48.743Z,26.77
2018-12-07T09:20:17.318Z,25.37
2018-12-07T09:22:45.720Z,21.70
2018-12-07T09:25:14.079Z,24.37
2018-12-07T09:27:42.483Z,23.77
2018-12-07T09:30:10.955Z,19.67
2018-12-07T09:32:39.480Z,23.57
2018-12-07T09:35:07.943Z,19.60
2018-12-07T09:37:36.328Z,12.80
2018-12-07T09:40:05.043Z,10.67
2018-12-07T09:42:33.423Z,14.27
2018-12-07T09:45:01.824Z,10.23
2018-12-07T09:47:30.258Z,9.10
2018-12-07T09:49:58.636Z,10.43
2018-12-07T09:52:27.016Z,11.87
2018-12-07T09:54:55.447Z,17.37
2018-12-07T09:57:23.919Z,8.83
2018-12-07T09:59:52.311Z,16.30
2018-12-07T10:02:20.679Z,9.97
2018-12-07T10:04:49.131Z,15.00
2018-12-07T10:07:17.601Z,10.27
2018-12-07T10:09:45.994Z,10.17
2018-12-07T10:12:14.468Z,10.43
2018-12-07T10:14:42.871Z,9.23
2018-12-07T10:17:11.246Z,8.70
2018-12-07T10:19:39.634Z,14.13
2018-12-07T10:22:08.140Z,10.13
2018-12-07T10:24:36.632Z,11.40
2018-12-07T10:27:07.232Z,7.10
2018-12-07T10:29:35.736Z,12.50
2018-12-07T10:32:04.354Z,11.63
2018-12-07T10:34:32.772Z,11.27
2018-12-07T10:37:01.151Z,10.07
2018-12-07T10:39:29.712Z,9.67
2018-12-07T10:41:59.840Z,13.20
2018-12-07T10:44:28.517Z,14.37
2018-12-07T10:46:57.023Z,12.17
2018-12-07T10:49:25.463Z,11.30
2018-12-07T10:51:53.867Z,9.57
2018-12-07T10:54:22.317Z,9.47
2018-12-07T10:56:50.830Z,9.80
2018-12-07T10:59:19.278Z,13.50
2018-12-07T11:01:53.137Z,14.20
2018-12-07T11:04:26.972Z,11.10
2018-12-07T11:07:00.640Z,9.30
2018-12-07T11:09:34.150Z,9.10
2018-12-07T11:12:08.987Z,9.07
2018-12-07T11:14:42.758Z,10.10
2018-12-07T11:17:16.576Z,13.17
2018-12-07T11:19:50.451Z,13.53
2018-12-07T11:22:24.169Z,6.70
2018-12-07T11:24:58.037Z,9.60
2018-12-07T11:27:32.052Z,9.87
2018-12-07T11:30:06.479Z,12.47
2018-12-07T11:32:39.323Z,10.07
2018-12-07T11:35:11.858Z,9.30
2018-12-07T11:37:40.312Z,8.47
2018-12-07T11:40:09.005Z,9.87
2018-12-07T11:42:37.395Z,10.97
2018-12-07T11:45:05.980Z,7.70
2018-12-07T11:47:34.521Z,7.60
2018-12-07T11:50:03.011Z,9.13
2018-12-07T11:52:31.380Z,10.70
2018-12-07T11:54:59.764Z,9.93
2018-12-07T11:57:28.144Z,6.07
2018-12-07T11:59:56.593Z,9.97
2018-12-07T12:02:26.486Z,7.13
2018-12-07T12:04:55.147Z,6.90
2018-12-07T12:07:23.517Z,8.03
2018-12-07T12:09:51.908Z,6.83
2018-12-07T12:12:20.297Z,5.00
2018-12-07T12:14:48.673Z,5.60
2018-12-07T12:17:17.039Z,7.00
2018-12-07T12:19:45.403Z,8.57
2018-12-07T12:22:13.840Z,6.67
2018-12-07T12:24:42.241Z,5.20
2018-12-07T12:27:10.626Z,10.67
2018-12-07T12:29:39.000Z,4.93
2018-12-07T12:32:07.350Z,7.53
2018-12-07T12:34:35.820Z,8.23
2018-12-07T12:37:04.301Z,6.70
2018-12-07T12:39:32.708Z,6.90
2018-12-07T12:42:01.064Z,8.30
2018-12-07T12:44:29.420Z,10.90
2018-12-07T12:46:57.843Z,11.57
2018-12-07T12:49:27.970Z,14.70
2018-12-07T12:51:57.330Z,12.23
2018-12-07T12:54:26.035Z,15.97
2018-12-07T12:56:54.604Z,12.93
2018-12-07T12:59:22.997Z,12.10
2018-12-07T13:01:51.463Z,17.40
2018-12-07T13:04:19.940Z,19.67
2018-12-07T13:06:48.459Z,16.57
2018-12-07T13:09:17.021Z,14.33
2018-12-07T13:11:45.610Z,19.03
2018-12-07T13:14:14.170Z,15.83
2018-12-07T13:16:42.669Z,19.77
2018-12-07T13:19:11.116Z,15.97
2018-12-07T13:21:39.520Z,12.57
2018-12-07T13:24:08.032Z,11.87
2018-12-07T13:26:36.579Z,13.50
2018-12-07T13:29:05.111Z,11.43
2018-12-07T13:31:33.607Z,12.57
2018-12-07T13:34:02.261Z,16.93
2018-12-07T13:36:31.192Z,14.33
2018-12-07T13:38:59.634Z,11.13
2018-12-07T13:41:28.048Z,9.17
2018-12-07T13:43:57.571Z,9.03
2018-12-07T13:46:26.436Z,13.37
2018-12-07T13:48:55.549Z,13.13
2018-12-07T13:51:24.247Z,10.80
2018-12-07T13:53:52.842Z,16.47
2018-12-07T13:56:21.433Z,18.17
2018-12-07T13:58:50.300Z,13.23
2018-12-07T14:01:19.125Z,11.60
2018-12-07T14:03:47.919Z,13.53
2018-12-07T14:06:16.454Z,12.77
2018-12-07T14:08:51.853Z,10.57
2018-12-07T14:11:20.424Z,13.87
2018-12-07T14:13:49.104Z,13.33
2018-12-07T14:16:17.720Z,16.50
2018-12-07T14:18:46.522Z,16.50
2018-12-07T14:21:15.146Z,18.57
2018-12-07T14:23:43.690Z,17.67
2018-12-07T14:26:12.247Z,18.70
2018-12-07T14:28:40.675Z,18.70
2018-12-07T14:31:09.343Z,21.90
2018-12-07T14:33:37.931Z,27.57
2018-12-07T14:36:06.306Z,24.83
2018-12-07T14:38:34.701Z,21.47
2018-12-07T14:41:03.414Z,26.30
2018-12-07T14:43:31.946Z,22.03
2018-12-07T14:46:00.482Z,22.23
2018-12-07T14:48:28.960Z,22.43
2018-12-07T14:50:57.463Z,22.53
2018-12-07T14:53:25.884Z,29.40
2018-12-07T14:55:54.391Z,24.73
2018-12-07T14:58:22.908Z,28.60
2018-12-07T15:00:51.441Z,20.87
2018-12-07T15:03:19.987Z,25.37
2018-12-07T15:05:50.303Z,20.87
2018-12-07T15:08:19.013Z,27.83
2018-12-07T15:10:47.544Z,23.43
2018-12-07T15:13:16.161Z,24.53
2018-12-07T15:15:44.579Z,24.87
2018-12-07T15:18:13.081Z,22.00
2018-12-07T15:20:41.676Z,25.37
2018-12-07T15:23:10.282Z,23.33
2018-12-07T15:25:38.800Z,27.10
2018-12-07T15:28:07.562Z,30.63
2018-12-07T15:30:36.124Z,31.43
2018-12-07T15:33:04.669Z,30.90
2018-12-07T15:35:33.214Z,35.00
2018-12-07T15:38:02.014Z,34.80
2018-12-07T15:40:30.671Z,40.97
2018-12-07T15:42:59.450Z,39.70
2018-12-07T15:45:27.956Z,45.50
2018-12-07T15:47:56.398Z,42.13
2018-12-07T15:50:25.440Z,46.43
2018-12-07T15:52:54.338Z,55.43
2018-12-07T15:55:22.905Z,49.33
2018-12-07T15:57:51.684Z,61.03
2018-12-07T16:00:20.197Z,63.60
2018-12-07T16:02:48.762Z,68.10
2018-12-07T16:05:17.203Z,67.57
2018-12-07T16:07:45.792Z,74.00
2018-12-07T16:10:14.308Z,73.63
2018-12-07T16:12:42.736Z,73.27
2018-12-07T16:15:11.361Z,94.77
2018-12-07T16:17:39.917Z,85.67
2018-12-07T16:20:12.533Z,87.23
2018-12-07T16:22:41.050Z,91.87
2018-12-07T16:25:09.552Z,79.97
2018-12-07T16:27:37.926Z,90.00
2018-12-07T16:30:08.521Z,88.77
2018-12-07T16:32:37.247Z,66.80
2018-12-07T16:35:06.519Z,74.63
2018-12-07T16:37:35.157Z,86.30
2018-12-07T16:40:04.653Z,66.77
2018-12-07T16:42:33.129Z,70.73
2018-12-07T16:45:01.744Z,83.00
2018-12-07T16:47:30.519Z,75.40
2018-12-07T16:49:59.129Z,66.27
2018-12-07T16:52:27.614Z,66.17
2018-12-07T16:54:56.061Z,71.13
2018-12-07T16:57:24.744Z,58.53
2018-12-07T16:59:53.405Z,62.13
2018-12-07T17:02:21.843Z,59.03
2018-12-07T17:04:50.319Z,43.10
2018-12-07T17:07:18.839Z,45.57
2018-12-07T17:09:47.440Z,51.57
2018-12-07T17:12:15.873Z,42.90
2018-12-07T17:14:44.574Z,43.93
2018-12-07T17:17:13.039Z,52.87
2018-12-07T17:19:41.496Z,38.23
2018-12-07T17:22:10.035Z,43.37
2018-12-07T17:24:38.673Z,37.77
2018-12-07T17:27:07.130Z,41.47
2018-12-07T17:29:35.620Z,37.83
2018-12-07T17:32:04.385Z,42.10
2018-12-07T17:34:32.870Z,32.80
2018-12-07T17:37:01.513Z,23.60
2018-12-07T17:39:30.105Z,37.73
2018-12-07T17:41:58.722Z,35.40
2018-12-07T17:44:27.321Z,32.03
2018-12-07T17:46:55.893Z,25.73
2018-12-07T17:49:24.621Z,24.60
2018-12-07T17:51:53.147Z,23.63
2018-12-07T17:54:21.729Z,28.40
2018-12-07T17:56:50.367Z,21.57
2018-12-07T17:59:18.963Z,25.77
2018-12-07T18:01:47.415Z,29.10
2018-12-07T18:04:15.887Z,24.37
2018-12-07T18:06:44.350Z,23.13
2018-12-07T18:09:12.870Z,22.93
2018-12-07T18:11:41.538Z,26.33
2018-12-07T18:14:10.896Z,27.87
2018-12-07T18:16:39.389Z,21.17
2018-12-07T18:19:07.846Z,19.77
2018-12-07T18:21:36.426Z,20.43
2018-12-07T18:24:05.195Z,25.90
2018-12-07T18:26:33.874Z,27.30
2018-12-07T18:29:02.510Z,23.27
2018-12-07T18:31:30.938Z,24.13
2018-12-07T18:33:59.510Z,22.57
2018-12-07T18:36:28.118Z,19.63
2018-12-07T18:38:56.556Z,24.53
2018-12-07T18:41:25.112Z,22.97
2018-12-07T18:43:53.735Z,25.83
2018-12-07T18:46:22.320Z,20.77
2018-12-07T18:48:51.379Z,25.60
2018-12-07T18:51:19.952Z,33.17
2018-12-07T18:53:48.804Z,27.67
2018-12-07T18:56:18.230Z,23.00
2018-12-07T18:58:47.097Z,30.70
2018-12-07T19:01:15.857Z,35.00
2018-12-07T19:03:45.232Z,33.87
2018-12-07T19:06:15.083Z,29.47
2018-12-07T19:08:44.598Z,31.53
2018-12-07T19:11:14.022Z,28.00
2018-12-07T19:13:43.998Z,24.00
2018-12-07T19:16:13.056Z,18.20
2018-12-07T19:18:42.589Z,26.47
2018-12-07T19:21:12.271Z,33.87
2018-12-07T19:23:41.096Z,31.80
2018-12-07T19:26:10.109Z,23.53
2018-12-07T19:28:38.992Z,28.90
2018-12-07T19:31:08.175Z,30.77
2018-12-07T19:33:36.846Z,35.73
2018-12-07T19:36:06.407Z,23.83
2018-12-07T19:38:35.499Z,38.83
2018-12-07T19:41:04.587Z,41.03
2018-12-07T19:43:33.179Z,26.37
2018-12-07T19:46:01.892Z,36.67
2018-12-07T19:48:30.475Z,39.43
2018-12-07T19:51:04.000Z,33.20
2018-12-07T19:53:33.627Z,29.40
2018-12-07T19:56:03.016Z,24.70
2018-12-07T19:58:32.478Z,32.97
2018-12-07T20:01:02.356Z,33.50
2018-12-07T20:03:31.605Z,33.90
2018-12-07T20:06:00.710Z,31.30
2018-12-07T20:08:29.939Z,6.33
2018-12-07T20:10:58.780Z,4.73
2018-12-07T20:13:28.331Z,4.00
2018-12-07T20:15:57.259Z,4.77
2018-12-07T20:18:26.554Z,9.97
2018-12-07T20:20:55.716Z,11.73
2018-12-07T20:23:25.004Z,14.70
2018-12-07T20:25:54.750Z,10.10
2018-12-07T20:28:23.271Z,11.77
2018-12-07T20:30:51.927Z,11.37
2018-12-07T20:33:20.465Z,18.60
2018-12-07T20:35:48.876Z,12.30
2018-12-07T20:38:17.319Z,18.50
2018-12-07T20:40:45.700Z,18.07
2018-12-07T20:43:14.052Z,18.03
2018-12-07T20:45:42.391Z,10.93
2018-12-07T20:48:10.847Z,18.70
2018-12-07T20:50:39.380Z,25.20
2018-12-07T20:53:07.806Z,16.53
2018-12-07T20:55:36.609Z,15.87
2018-12-07T20:58:05.140Z,18.13
2018-12-07T21:00:33.478Z,19.07
2018-12-07T21:03:02.042Z,10.00
2018-12-07T21:07:51.332Z,17.53
2018-12-07T21:10:39.474Z,16.07
2018-12-07T21:13:25.759Z,14.47
2018-12-07T21:15:54.192Z,22.87
2018-12-07T21:18:22.624Z,16.07
2018-12-07T21:20:51.173Z,16.40
2018-12-07T21:23:19.790Z,16.33
2018-12-07T21:25:48.251Z,19.47
2018-12-07T21:28:16.653Z,18.93
2018-12-07T21:30:56.389Z,13.57
2018-12-07T21:33:37.743Z,20.60
2018-12-07T21:36:39.890Z,19.27
2018-12-07T21:39:17.828Z,14.00
2018-12-07T21:41:46.159Z,17.03
2018-12-07T21:44:14.562Z,11.53
2018-12-07T21:46:43.649Z,28.20
2018-12-07T21:49:12.538Z,17.30
2018-12-07T21:52:53.381Z,23.63
2018-12-07T21:55:22.108Z,15.30
2018-12-07T21:57:50.576Z,22.30
2018-12-07T22:00:19.030Z,22.37
2018-12-07T22:02:47.441Z,11.90
2018-12-07T22:05:15.916Z,19.03
2018-12-07T22:07:44.462Z,23.63
2018-12-07T22:10:12.875Z,15.27
2018-12-07T22:12:41.502Z,11.07
2018-12-07T22:15:10.023Z,11.80
2018-12-07T22:17:38.503Z,15.30
2018-12-07T22:20:07.394Z,21.57
2018-12-07T22:22:36.881Z,23.07
2018-12-07T22:25:05.602Z,14.90
2018-12-07T22:27:33.985Z,17.97
2018-12-07T22:30:02.642Z,12.20
2018-12-07T22:32:31.238Z,17.97
2018-12-07T22:34:59.978Z,11.73
2018-12-07T22:37:28.467Z,18.83
2018-12-07T22:39:57.005Z,14.60
2018-12-07T22:42:25.506Z,17.60
2018-12-07T22:44:53.892Z,22.23
2018-12-07T22:47:22.245Z,17.67
2018-12-07T22:49:50.597Z,10.03
2018-12-07T22:52:18.955Z,21.20
2018-12-07T22:54:47.327Z,12.53
2018-12-07T22:57:15.808Z,15.97
2018-12-07T22:59:44.213Z,13.87
2018-12-07T23:02:12.640Z,18.77
2018-12-07T23:04:41.015Z,27.10
2018-12-07T23:07:09.362Z,18.00
2018-12-07T23:09:37.850Z,26.93
2018-12-07T23:12:06.411Z,23.60
2018-12-07T23:14:34.908Z,33.93
2018-12-07T23:17:03.511Z,31.63
2018-12-07T23:19:31.865Z,21.33
2018-12-07T23:22:00.243Z,22.37
2018-12-07T23:24:28.670Z,27.40
2018-12-07T23:26:57.028Z,29.10
2018-12-07T23:29:25.385Z,42.43
2018-12-07T23:31:53.856Z,28.50
2018-12-07T23:34:22.256Z,18.67
2018-12-07T23:36:50.635Z,15.97
2018-12-07T23:39:19.003Z,20.87
2018-12-07T23:41:47.487Z,24.47
2018-12-07T23:44:15.871Z,23.50
2018-12-07T23:46:44.336Z,23.50
2018-12-07T23:49:12.859Z,23.23
2018-12-07T23:51:41.219Z,19.03
2018-12-07T23:54:09.573Z,33.67
2018-12-07T23:56:38.063Z,20.00
2018-12-07T23:59:06.435Z,17.77
